createdAt,value
2022-09-12T00:00:17.183Z,100.00
2022-09-12T00:02:20.022Z,100.00
2022-09-12T00:04:21.661Z,100.00
2022-09-12T00:06:25.916Z,100.00
2022-09-12T00:08:27.376Z,100.00
2022-09-12T00:10:28.852Z,100.00
2022-09-12T00:12:30.360Z,100.00
2022-09-12T00:14:31.900Z,100.00
2022-09-12T00:16:35.741Z,100.00
2022-09-12T00:18:38.660Z,100.00
2022-09-12T00:20:41.645Z,100.00
2022-09-12T00:22:43.596Z,100.00
2022-09-12T00:24:45.240Z,100.00
2022-09-12T00:26:46.796Z,100.00
2022-09-12T00:28:48.376Z,100.00
2022-09-12T00:30:49.936Z,100.00
2022-09-12T00:32:51.409Z,100.00
2022-09-12T00:34:54.252Z,100.00
2022-09-12T00:36:55.726Z,100.00
2022-09-12T00:38:57.446Z,100.00
2022-09-12T00:40:58.951Z,100.00
2022-09-12T00:43:00.454Z,100.00
2022-09-12T00:45:01.945Z,100.00
2022-09-12T00:47:10.409Z,100.00
2022-09-12T00:49:15.691Z,100.00
2022-09-12T00:51:19.386Z,100.00
2022-09-12T00:53:21.141Z,100.00
2022-09-12T00:55:26.085Z,100.00
2022-09-12T00:57:31.783Z,100.00
2022-09-12T00:59:39.535Z,100.00
2022-09-12T01:01:42.834Z,100.00
2022-09-12T01:03:44.737Z,100.00
2022-09-12T01:05:52.584Z,100.00
2022-09-12T01:07:57.069Z,100.00
2022-09-12T01:09:58.540Z,100.00
2022-09-12T01:12:01.898Z,100.00
2022-09-12T01:14:03.383Z,100.00
2022-09-12T01:16:06.742Z,100.00
2022-09-12T01:18:16.899Z,100.00
2022-09-12T01:20:39.102Z,100.00
2022-09-12T01:23:00.770Z,100.00
2022-09-12T01:25:09.779Z,100.00
2022-09-12T01:27:47.681Z,100.00
2022-09-12T01:30:04.872Z,100.00
2022-09-12T01:32:13.045Z,100.00
2022-09-12T01:34:22.253Z,100.00
2022-09-12T01:36:42.301Z,100.00
2022-09-12T01:38:48.581Z,100.00
2022-09-12T01:40:58.861Z,100.00
2022-09-12T01:43:05.616Z,100.00
2022-09-12T01:45:11.500Z,100.00
2022-09-12T01:47:20.444Z,100.00
2022-09-12T01:49:24.274Z,100.00
2022-09-12T01:51:31.929Z,100.00
2022-09-12T01:53:35.127Z,100.00
2022-09-12T01:55:41.983Z,100.00
2022-09-12T01:57:49.355Z,100.00
2022-09-12T01:59:55.321Z,100.00
2022-09-12T02:02:03.333Z,100.00
2022-09-12T02:04:09.184Z,100.00
2022-09-12T02:06:18.407Z,100.00
2022-09-12T02:08:26.070Z,100.00
2022-09-12T02:10:32.495Z,100.00
2022-09-12T02:12:40.209Z,100.00
2022-09-12T02:14:45.966Z,100.00
2022-09-12T02:16:51.598Z,100.00
2022-09-12T02:18:57.624Z,100.00
2022-09-12T02:21:04.083Z,100.00
2022-09-12T02:23:12.114Z,100.00
2022-09-12T02:25:16.360Z,100.00
2022-09-12T02:27:22.293Z,100.00
2022-09-12T02:29:24.089Z,100.00
2022-09-12T02:31:30.157Z,100.00
2022-09-12T02:33:42.403Z,100.00
2022-09-12T02:35:49.199Z,100.00
2022-09-12T02:37:58.966Z,100.00
2022-09-12T02:40:01.217Z,100.00
2022-09-12T02:42:03.913Z,100.00
2022-09-12T02:44:05.792Z,100.00
2022-09-12T02:46:12.265Z,100.00
2022-09-12T02:48:18.539Z,100.00
2022-09-12T02:50:20.354Z,100.00
2022-09-12T02:52:21.817Z,100.00
2022-09-12T02:54:25.615Z,100.00
2022-09-12T02:56:30.125Z,100.00
2022-09-12T02:58:32.419Z,100.00
2022-09-12T03:00:41.955Z,100.00
2022-09-12T03:03:08.656Z,100.00
2022-09-12T03:05:22.616Z,100.00
2022-09-12T03:07:36.589Z,100.00
2022-09-12T03:09:46.105Z,100.00
2022-09-12T03:12:08.378Z,100.00
2022-09-12T03:14:22.154Z,100.00
2022-09-12T03:16:30.516Z,100.00
2022-09-12T03:18:45.968Z,100.00
2022-09-12T03:20:53.909Z,100.00
2022-09-12T03:22:59.126Z,100.00
2022-09-12T03:25:10.482Z,100.00
2022-09-12T03:27:16.133Z,100.00
2022-09-12T03:29:19.002Z,100.00
2022-09-12T03:31:20.483Z,100.00
2022-09-12T03:33:24.258Z,100.00
2022-09-12T03:35:25.721Z,100.00
2022-09-12T03:37:27.154Z,100.00
2022-09-12T03:39:28.482Z,100.00
2022-09-12T03:41:31.269Z,100.00
2022-09-12T03:43:32.752Z,100.00
2022-09-12T03:45:34.452Z,100.00
2022-09-12T03:47:36.224Z,100.00
2022-09-12T03:49:37.672Z,100.00
2022-09-12T03:51:39.746Z,100.00
2022-09-12T03:53:41.181Z,100.00
2022-09-12T03:55:42.472Z,100.00
2022-09-12T03:57:45.313Z,100.00
2022-09-12T03:59:48.460Z,100.00
2022-09-12T04:01:49.896Z,100.00
2022-09-12T04:03:52.740Z,100.00
2022-09-12T04:05:54.170Z,100.00
2022-09-12T04:07:55.443Z,100.00
2022-09-12T04:09:57.041Z,100.00
2022-09-12T04:11:58.609Z,100.00
2022-09-12T04:14:01.387Z,100.00
2022-09-12T04:16:03.501Z,100.00
2022-09-12T04:18:06.104Z,100.00
2022-09-12T04:20:08.398Z,100.00
2022-09-12T04:22:09.850Z,100.00
2022-09-12T04:24:11.245Z,100.00
2022-09-12T04:26:14.008Z,100.00
2022-09-12T04:28:15.487Z,100.00
2022-09-12T04:30:18.525Z,100.00
2022-09-12T04:32:20.065Z,100.00
2022-09-12T04:34:21.611Z,100.00
2022-09-12T04:36:23.252Z,100.00
2022-09-12T04:38:24.703Z,100.00
2022-09-12T04:40:26.147Z,100.00
2022-09-12T04:42:27.576Z,100.00
2022-09-12T04:44:28.845Z,100.00
2022-09-12T04:46:35.108Z,100.00
2022-09-12T04:48:36.915Z,100.00
2022-09-12T04:50:38.333Z,100.00
2022-09-12T04:52:39.619Z,100.00
2022-09-12T04:54:41.201Z,100.00
2022-09-12T04:56:45.630Z,100.00
2022-09-12T04:58:47.749Z,100.00
2022-09-12T05:00:49.325Z,100.00
2022-09-12T05:02:52.116Z,100.00
2022-09-12T05:04:53.596Z,100.00
2022-09-12T05:06:55.021Z,100.00
2022-09-12T05:08:56.617Z,100.00
2022-09-12T05:11:02.310Z,100.00
2022-09-12T05:13:03.755Z,100.00
2022-09-12T05:15:05.797Z,100.00
2022-09-12T05:17:07.287Z,100.00
2022-09-12T05:19:11.269Z,100.00
2022-09-12T05:21:14.803Z,100.00
2022-09-12T05:23:16.246Z,100.00
2022-09-12T05:25:17.700Z,100.00
2022-09-12T05:27:19.151Z,100.00
2022-09-12T05:29:20.711Z,100.00
2022-09-12T05:31:24.804Z,100.00
2022-09-12T05:33:26.213Z,100.00
2022-09-12T05:35:29.109Z,100.00
2022-09-12T05:37:30.588Z,100.00
2022-09-12T05:39:32.044Z,100.00
2022-09-12T05:41:34.743Z,100.00
2022-09-12T05:43:37.421Z,100.00
2022-09-12T05:45:38.980Z,100.00
2022-09-12T05:47:40.478Z,100.00
2022-09-12T05:49:41.919Z,99.77
2022-09-12T05:51:45.459Z,100.00
2022-09-12T05:53:48.717Z,100.00
2022-09-12T05:55:50.156Z,100.00
2022-09-12T05:57:51.685Z,100.00
2022-09-12T05:59:53.158Z,99.69
2022-09-12T06:01:54.619Z,99.32
2022-09-12T06:03:58.508Z,100.00
2022-09-12T06:06:02.827Z,100.00
2022-09-12T06:08:05.632Z,100.00
2022-09-12T06:10:07.430Z,100.00
2022-09-12T06:12:08.892Z,100.00
2022-09-12T06:14:12.722Z,100.00
2022-09-12T06:16:16.776Z,100.00
2022-09-12T06:18:18.245Z,99.77
2022-09-12T06:20:19.680Z,100.00
2022-09-12T06:22:21.147Z,100.00
2022-09-12T06:24:23.957Z,100.00
2022-09-12T06:26:25.496Z,100.00
2022-09-12T06:28:27.471Z,100.00
2022-09-12T06:30:29.012Z,100.00
2022-09-12T06:32:30.735Z,100.00
2022-09-12T06:34:32.154Z,100.00
2022-09-12T06:36:36.859Z,100.00
2022-09-12T06:38:38.996Z,100.00
2022-09-12T06:40:43.366Z,100.00
2022-09-12T06:42:44.848Z,100.00
2022-09-12T06:44:46.271Z,100.00
2022-09-12T06:46:48.213Z,100.00
2022-09-12T06:48:50.162Z,100.00
2022-09-12T06:50:58.439Z,100.00
2022-09-12T06:52:59.897Z,98.47
2022-09-12T06:55:01.343Z,97.56
2022-09-12T06:57:04.171Z,97.39
2022-09-12T06:59:05.691Z,98.21
2022-09-12T07:01:09.462Z,98.59
2022-09-12T07:03:10.966Z,99.13
2022-09-12T07:05:17.947Z,97.02
2022-09-12T07:07:22.198Z,97.19
2022-09-12T07:09:23.681Z,97.24
2022-09-12T07:11:28.002Z,97.26
2022-09-12T07:13:30.808Z,95.14
2022-09-12T07:15:34.758Z,94.54
2022-09-12T07:17:36.193Z,92.84
2022-09-12T07:19:37.757Z,93.73
2022-09-12T07:21:39.234Z,92.90
2022-09-12T07:23:41.373Z,94.06
2022-09-12T07:25:42.831Z,92.80
2022-09-12T07:27:47.131Z,92.12
2022-09-12T07:29:53.408Z,92.69
2022-09-12T07:31:54.896Z,93.09
2022-09-12T07:33:56.593Z,91.94
2022-09-12T07:36:01.207Z,93.72
2022-09-12T07:38:02.866Z,92.86
2022-09-12T07:40:04.905Z,92.75
2022-09-12T07:42:06.606Z,90.72
2022-09-12T07:44:08.298Z,90.86
2022-09-12T07:46:11.622Z,88.86
2022-09-12T07:48:13.118Z,88.71
2022-09-12T07:50:14.666Z,89.75
2022-09-12T07:52:16.103Z,87.63
2022-09-12T07:54:17.589Z,85.94
2022-09-12T07:56:19.831Z,87.03
2022-09-12T07:58:21.313Z,84.82
2022-09-12T08:00:22.785Z,85.37
2022-09-12T08:02:25.680Z,84.13
2022-09-12T08:04:27.166Z,85.71
2022-09-12T08:06:29.397Z,86.88
2022-09-12T08:08:30.899Z,85.44
2022-09-12T08:10:32.412Z,82.68
2022-09-12T08:12:33.946Z,82.88
2022-09-12T08:14:35.647Z,81.32
2022-09-12T08:16:37.778Z,81.27
2022-09-12T08:18:40.788Z,80.78
2022-09-12T08:20:42.242Z,80.98
2022-09-12T08:22:43.876Z,81.28
2022-09-12T08:24:45.281Z,81.89
2022-09-12T08:26:46.755Z,80.15
2022-09-12T08:28:48.290Z,77.78
2022-09-12T08:30:49.726Z,76.70
2022-09-12T08:32:51.198Z,76.75
2022-09-12T08:34:54.004Z,75.25
2022-09-12T08:36:55.465Z,75.34
2022-09-12T08:38:59.885Z,76.04
2022-09-12T08:41:09.405Z,75.85
2022-09-12T08:43:26.847Z,74.92
2022-09-12T08:45:34.905Z,77.13
2022-09-12T08:47:39.076Z,73.99
2022-09-12T08:49:50.304Z,74.45
2022-09-12T08:51:54.463Z,73.54
2022-09-12T08:53:57.702Z,70.58
2022-09-12T08:56:00.224Z,72.52
2022-09-12T08:58:07.408Z,70.66
2022-09-12T09:00:13.484Z,69.31
2022-09-12T09:02:39.700Z,68.33
2022-09-12T09:04:50.490Z,69.43
2022-09-12T09:07:16.872Z,71.73
2022-09-12T09:09:30.025Z,71.67
2022-09-12T09:11:48.914Z,72.67
2022-09-12T09:14:05.466Z,73.55
2022-09-12T09:16:14.528Z,70.54
2022-09-12T09:18:22.823Z,70.06
2022-09-12T09:20:33.229Z,70.23
2022-09-12T09:22:42.916Z,69.84
2022-09-12T09:24:48.795Z,69.16
2022-09-12T09:26:57.129Z,67.64
2022-09-12T09:29:03.157Z,68.57
2022-09-12T09:31:05.213Z,66.30
2022-09-12T09:33:15.444Z,65.99
2022-09-12T09:35:18.992Z,65.64
2022-09-12T09:37:28.391Z,64.86
2022-09-12T09:39:45.886Z,66.96
2022-09-12T09:41:56.564Z,64.68
2022-09-12T09:43:59.626Z,66.27
2022-09-12T09:46:01.195Z,66.96
2022-09-12T09:48:15.499Z,67.82
2022-09-12T09:50:17.470Z,68.78
2022-09-12T09:52:24.909Z,69.07
2022-09-12T09:54:29.542Z,68.22
2022-09-12T09:56:34.506Z,65.37
2022-09-12T09:58:36.945Z,63.36
2022-09-12T10:00:39.206Z,63.33
2022-09-12T10:02:40.766Z,61.55
2022-09-12T10:04:54.017Z,61.13
2022-09-12T10:06:58.545Z,60.30
2022-09-12T10:09:06.363Z,59.20
2022-09-12T10:11:19.051Z,60.11
2022-09-12T10:13:27.831Z,61.08
2022-09-12T10:15:29.358Z,60.08
2022-09-12T10:17:39.106Z,61.72
2022-09-12T10:19:40.665Z,59.03
2022-09-12T10:21:52.454Z,58.96
2022-09-12T10:24:01.191Z,58.93
2022-09-12T10:26:05.146Z,56.17
2022-09-12T10:28:24.071Z,57.29
2022-09-12T10:30:27.974Z,57.37
2022-09-12T10:32:33.970Z,58.46
2022-09-12T10:34:38.101Z,56.59
2022-09-12T10:36:40.058Z,57.12
2022-09-12T10:38:49.318Z,56.25
2022-09-12T10:40:57.642Z,56.05
2022-09-12T10:43:00.424Z,56.77
2022-09-12T10:45:01.876Z,56.48
2022-09-12T10:47:23.207Z,56.34
2022-09-12T10:49:27.907Z,55.86
2022-09-12T10:51:29.635Z,55.68
2022-09-12T10:53:39.680Z,54.99
2022-09-12T10:55:47.974Z,55.91
2022-09-12T10:57:59.959Z,54.79
2022-09-12T11:00:09.967Z,55.25
2022-09-12T11:02:20.048Z,55.92
2022-09-12T11:04:34.148Z,57.76
2022-09-12T11:06:40.331Z,58.35
2022-09-12T11:08:53.154Z,56.99
2022-09-12T11:10:59.616Z,58.98
2022-09-12T11:13:13.220Z,57.90
2022-09-12T11:15:32.500Z,58.94
2022-09-12T11:17:44.494Z,56.89
2022-09-12T11:20:02.461Z,59.07
2022-09-12T11:22:19.756Z,58.32
2022-09-12T11:24:39.477Z,57.33
2022-09-12T11:26:50.669Z,57.80
2022-09-12T11:29:03.929Z,56.45
2022-09-12T11:31:23.463Z,58.21
2022-09-12T11:33:39.656Z,55.71
2022-09-12T11:35:54.416Z,55.92
2022-09-12T11:38:22.437Z,56.67
2022-09-12T11:40:29.734Z,55.40
2022-09-12T11:42:36.820Z,55.27
2022-09-12T11:44:41.576Z,54.36
2022-09-12T11:46:45.230Z,56.06
2022-09-12T11:48:55.133Z,56.78
2022-09-12T11:50:58.017Z,57.35
2022-09-12T11:53:05.218Z,57.62
2022-09-12T11:55:15.779Z,56.02
2022-09-12T11:57:24.969Z,56.66
2022-09-12T11:59:35.207Z,55.82
2022-09-12T12:01:44.923Z,56.16
2022-09-12T12:03:49.970Z,55.92
2022-09-12T12:05:55.304Z,56.80
2022-09-12T12:08:00.199Z,55.95
2022-09-12T12:10:01.764Z,55.45
2022-09-12T12:12:07.720Z,55.25
2022-09-12T12:14:16.952Z,56.42
2022-09-12T12:16:23.244Z,55.11
2022-09-12T12:18:26.774Z,54.79
2022-09-12T12:20:28.906Z,55.30
2022-09-12T12:22:30.458Z,53.79
2022-09-12T12:24:33.408Z,53.79
2022-09-12T12:26:54.737Z,53.04
2022-09-12T12:28:58.944Z,54.69
2022-09-12T12:31:01.754Z,53.78
2022-09-12T12:33:27.170Z,52.54
2022-09-12T12:35:40.079Z,52.22
2022-09-12T12:37:50.845Z,53.59
2022-09-12T12:39:58.612Z,54.92
2022-09-12T12:42:00.456Z,54.98
2022-09-12T12:44:40.636Z,56.45
2022-09-12T12:47:13.736Z,57.63
2022-09-12T12:49:21.361Z,57.54
2022-09-12T12:51:39.962Z,58.89
2022-09-12T12:53:42.116Z,56.80
2022-09-12T12:55:50.255Z,58.23
2022-09-12T12:57:54.230Z,57.57
2022-09-12T13:00:00.339Z,58.98
2022-09-12T13:02:03.981Z,57.07
2022-09-12T13:04:14.026Z,56.23
2022-09-12T13:06:29.450Z,57.60
2022-09-12T13:08:33.311Z,57.96
2022-09-12T13:10:35.084Z,59.17
2022-09-12T13:12:45.767Z,58.93
2022-09-12T13:14:54.146Z,57.81
2022-09-12T13:16:59.082Z,58.66
2022-09-12T13:19:05.112Z,57.41
2022-09-12T13:21:10.130Z,57.78
2022-09-12T13:23:22.160Z,57.77
2022-09-12T13:25:30.349Z,58.95
2022-09-12T13:27:31.832Z,56.96
2022-09-12T13:29:34.651Z,55.99
2022-09-12T13:31:36.428Z,56.24
2022-09-12T13:33:42.282Z,57.23
2022-09-12T13:36:12.609Z,55.67
2022-09-12T13:38:23.324Z,56.85
2022-09-12T13:40:33.379Z,56.74
2022-09-12T13:42:41.800Z,55.06
2022-09-12T13:44:47.848Z,55.55
2022-09-12T13:46:50.859Z,54.78
2022-09-12T13:48:52.375Z,54.64
2022-09-12T13:50:56.519Z,55.69
2022-09-12T13:53:01.421Z,55.22
2022-09-12T13:55:07.825Z,55.34
2022-09-12T13:57:28.313Z,55.98
2022-09-12T13:59:38.189Z,57.10
2022-09-12T14:01:42.936Z,55.25
2022-09-12T14:03:50.007Z,55.72
2022-09-12T14:05:56.976Z,54.90
2022-09-12T14:08:01.391Z,54.89
2022-09-12T14:10:03.133Z,56.54
2022-09-12T14:12:09.842Z,56.69
2022-09-12T14:14:23.871Z,57.38
2022-09-12T14:16:25.382Z,56.50
2022-09-12T14:18:30.067Z,56.46
2022-09-12T14:20:35.896Z,57.50
2022-09-12T14:22:37.704Z,57.03
2022-09-12T14:24:39.659Z,56.84
2022-09-12T14:26:43.214Z,56.43
2022-09-12T14:28:46.384Z,57.71
2022-09-12T14:30:59.311Z,58.24
2022-09-12T14:33:16.654Z,57.96
2022-09-12T14:35:20.396Z,58.46
2022-09-12T14:37:21.846Z,58.55
2022-09-12T14:39:28.548Z,57.75
2022-09-12T14:41:33.051Z,57.81
2022-09-12T14:43:37.076Z,57.79
2022-09-12T14:45:38.643Z,56.21
2022-09-12T14:47:42.892Z,56.24
2022-09-12T14:49:44.632Z,56.75
2022-09-12T14:51:55.302Z,58.02
2022-09-12T14:53:56.924Z,57.12
2022-09-12T14:56:05.638Z,56.59
2022-09-12T14:58:14.670Z,55.98
2022-09-12T15:00:19.814Z,56.86
2022-09-12T15:02:25.418Z,55.73
2022-09-12T15:04:40.619Z,56.68
2022-09-12T15:06:42.099Z,56.12
2022-09-12T15:08:44.903Z,56.10
2022-09-12T15:10:46.805Z,56.60
2022-09-12T15:12:48.338Z,57.60
2022-09-12T15:14:49.794Z,58.12
2022-09-12T15:16:51.259Z,58.81
2022-09-12T15:18:52.739Z,59.58
2022-09-12T15:20:56.440Z,58.54
2022-09-12T15:22:58.191Z,59.27
2022-09-12T15:25:01.020Z,59.35
2022-09-12T15:27:02.520Z,59.34
2022-09-12T15:29:04.173Z,59.56
2022-09-12T15:31:11.188Z,59.77
2022-09-12T15:33:12.790Z,58.86
2022-09-12T15:35:16.630Z,58.85
2022-09-12T15:37:19.641Z,59.58
2022-09-12T15:39:21.176Z,59.02
2022-09-12T15:41:31.245Z,59.15
2022-09-12T15:43:32.714Z,60.54
2022-09-12T15:45:35.310Z,59.36
2022-09-12T15:47:36.862Z,59.98
2022-09-12T15:49:38.685Z,60.95
2022-09-12T15:51:40.189Z,60.53
2022-09-12T15:53:42.268Z,60.75
2022-09-12T15:55:44.557Z,62.19
2022-09-12T15:57:47.428Z,62.46
2022-09-12T15:59:48.907Z,62.19
2022-09-12T16:01:50.395Z,60.41
2022-09-12T16:03:51.975Z,60.07
2022-09-12T16:05:56.762Z,60.65
2022-09-12T16:07:58.291Z,61.42
2022-09-12T16:09:59.783Z,61.48
2022-09-12T16:12:01.802Z,61.92
2022-09-12T16:14:05.350Z,63.17
2022-09-12T16:16:07.728Z,63.50
2022-09-12T16:18:09.422Z,62.74
2022-09-12T16:20:11.819Z,63.42
2022-09-12T16:22:13.322Z,63.77
2022-09-12T16:24:14.905Z,62.93
2022-09-12T16:26:17.307Z,63.21
2022-09-12T16:28:19.027Z,63.32
2022-09-12T16:30:21.960Z,63.92
2022-09-12T16:32:23.533Z,64.77
2022-09-12T16:34:25.035Z,64.74
2022-09-12T16:36:26.641Z,64.71
2022-09-12T16:38:30.169Z,65.03
2022-09-12T16:40:31.675Z,65.07
2022-09-12T16:42:33.569Z,65.11
2022-09-12T16:44:35.213Z,65.66
2022-09-12T16:46:38.281Z,65.61
2022-09-12T16:48:42.711Z,65.37
2022-09-12T16:50:44.355Z,65.94
2022-09-12T16:52:46.557Z,65.61
2022-09-12T16:54:48.287Z,66.05
2022-09-12T16:56:49.788Z,65.86
2022-09-12T16:58:51.687Z,65.95
2022-09-12T17:01:00.348Z,66.62
2022-09-12T17:03:03.275Z,67.18
2022-09-12T17:05:05.620Z,67.95
2022-09-12T17:07:07.722Z,68.26
2022-09-12T17:09:09.481Z,68.73
2022-09-12T17:11:15.993Z,68.98
2022-09-12T17:13:17.484Z,69.13
2022-09-12T17:15:18.997Z,69.41
2022-09-12T17:17:20.650Z,69.68
2022-09-12T17:19:25.305Z,69.95
2022-09-12T17:21:26.848Z,70.10
2022-09-12T17:23:31.593Z,70.58
2022-09-12T17:25:33.667Z,71.18
2022-09-12T17:27:35.181Z,71.50
2022-09-12T17:29:36.671Z,71.88
2022-09-12T17:31:38.273Z,72.17
2022-09-12T17:33:40.269Z,72.72
2022-09-12T17:35:43.175Z,73.31
2022-09-12T17:37:44.722Z,73.51
2022-09-12T17:39:46.311Z,74.08
2022-09-12T17:41:47.851Z,74.31
2022-09-12T17:43:50.591Z,74.50
2022-09-12T17:45:55.902Z,74.88
2022-09-12T17:47:57.442Z,75.39
2022-09-12T17:50:20.727Z,75.59
2022-09-12T17:52:21.860Z,75.96
2022-09-12T17:54:23.321Z,76.25
2022-09-12T17:56:25.194Z,76.71
2022-09-12T17:58:26.693Z,77.14
2022-09-12T18:00:29.420Z,77.65
2022-09-12T18:02:33.181Z,78.09
2022-09-12T18:04:35.402Z,78.23
2022-09-12T18:06:37.429Z,78.57
2022-09-12T18:08:40.903Z,79.25
2022-09-12T18:10:42.457Z,79.78
2022-09-12T18:12:43.930Z,80.19
2022-09-12T18:14:45.564Z,80.11
2022-09-12T18:16:47.761Z,80.22
2022-09-12T18:18:49.277Z,80.49
2022-09-12T18:20:50.830Z,80.67
2022-09-12T18:22:52.308Z,80.75
2022-09-12T18:24:55.177Z,80.71
2022-09-12T18:26:56.723Z,81.07
2022-09-12T18:28:58.778Z,81.89
2022-09-12T18:31:00.409Z,81.48
2022-09-12T18:33:02.035Z,81.54
2022-09-12T18:35:03.751Z,82.25
2022-09-12T18:37:05.279Z,82.67
2022-09-12T18:39:07.029Z,82.68
2022-09-12T18:41:11.608Z,82.26
2022-09-12T18:43:13.173Z,82.49
2022-09-12T18:45:14.957Z,83.27
2022-09-12T18:47:16.618Z,83.70
2022-09-12T18:49:18.116Z,84.46
2022-09-12T18:51:20.687Z,84.67
2022-09-12T18:53:22.145Z,85.21
2022-09-12T18:55:23.865Z,86.01
2022-09-12T18:57:26.710Z,86.56
2022-09-12T18:59:28.180Z,87.21
2022-09-12T19:01:31.433Z,87.80
2022-09-12T19:03:33.051Z,88.07
2022-09-12T19:05:34.766Z,88.07
2022-09-12T19:07:36.265Z,88.72
2022-09-12T19:09:37.961Z,88.37
2022-09-12T19:11:41.617Z,88.18
2022-09-12T19:13:46.472Z,87.87
2022-09-12T19:15:48.083Z,88.46
2022-09-12T19:17:49.611Z,88.38
2022-09-12T19:19:51.074Z,89.07
2022-09-12T19:21:52.706Z,88.54
2022-09-12T19:23:56.946Z,88.68
2022-09-12T19:26:00.978Z,89.34
2022-09-12T19:28:02.736Z,89.84
2022-09-12T19:30:06.608Z,90.21
2022-09-12T19:32:08.129Z,90.74
2022-09-12T19:34:11.066Z,91.12
2022-09-12T19:36:34.049Z,91.31
2022-09-12T19:38:36.464Z,91.57
2022-09-12T19:40:38.105Z,91.73
2022-09-12T19:42:39.672Z,91.55
2022-09-12T19:44:41.163Z,92.05
2022-09-12T19:46:44.120Z,91.98
2022-09-12T19:48:45.812Z,92.34
2022-09-12T19:50:47.671Z,92.14
2022-09-12T19:52:49.182Z,92.45
2022-09-12T19:54:50.665Z,92.40
2022-09-12T19:56:52.165Z,92.99
2022-09-12T19:58:56.457Z,93.22
2022-09-12T20:01:08.766Z,93.85
2022-09-12T20:03:11.632Z,94.11
2022-09-12T20:05:13.183Z,94.86
2022-09-12T20:07:14.656Z,95.46
2022-09-12T20:09:16.208Z,95.74
2022-09-12T20:11:19.798Z,95.92
2022-09-12T20:13:21.345Z,96.14
2022-09-12T20:15:22.857Z,96.23
2022-09-12T20:17:24.422Z,96.08
2022-09-12T20:19:27.310Z,95.88
2022-09-12T20:21:30.224Z,95.65
2022-09-12T20:23:31.745Z,95.82
2022-09-12T20:25:33.265Z,95.72
2022-09-12T20:27:34.774Z,95.23
2022-09-12T20:29:36.299Z,96.13
2022-09-12T20:31:40.395Z,96.41
2022-09-12T20:33:42.498Z,95.87
2022-09-12T20:35:45.326Z,96.29
2022-09-12T20:37:46.865Z,96.86
2022-09-12T20:39:50.876Z,97.08
2022-09-12T20:41:52.698Z,97.15
2022-09-12T20:43:55.957Z,97.34
2022-09-12T20:45:57.597Z,97.85
2022-09-12T20:47:59.192Z,98.36
2022-09-12T20:50:00.687Z,98.84
2022-09-12T20:52:03.824Z,99.16
2022-09-12T20:54:07.030Z,100.00
2022-09-12T20:56:08.585Z,99.81
2022-09-12T20:58:10.067Z,100.00
2022-09-12T21:00:12.527Z,100.00
2022-09-12T21:02:15.325Z,100.00
2022-09-12T21:04:17.222Z,100.00
2022-09-12T21:06:19.285Z,100.00
2022-09-12T21:08:22.119Z,100.00
2022-09-12T21:10:23.596Z,100.00
2022-09-12T21:12:27.398Z,100.00
2022-09-12T21:14:28.912Z,100.00
2022-09-12T21:16:30.440Z,100.00
2022-09-12T21:18:32.837Z,100.00
2022-09-12T21:20:34.488Z,100.00
2022-09-12T21:22:36.065Z,100.00
2022-09-12T21:24:38.956Z,100.00
2022-09-12T21:26:40.521Z,100.00
2022-09-12T21:28:41.972Z,100.00
2022-09-12T21:30:43.731Z,100.00
2022-09-12T21:32:45.216Z,100.00
2022-09-12T21:34:46.727Z,100.00
2022-09-12T21:36:48.240Z,100.00
2022-09-12T21:38:49.713Z,100.00
2022-09-12T21:41:02.639Z,100.00
2022-09-12T21:43:04.218Z,100.00
2022-09-12T21:45:06.459Z,100.00
2022-09-12T21:47:07.939Z,100.00
2022-09-12T21:49:09.605Z,100.00
2022-09-12T21:51:11.161Z,100.00
2022-09-12T21:53:12.727Z,100.00
2022-09-12T21:55:14.508Z,100.00
2022-09-12T21:57:17.329Z,100.00
2022-09-12T21:59:18.868Z,100.00
2022-09-12T22:01:20.655Z,100.00
2022-09-12T22:03:22.263Z,100.00
2022-09-12T22:05:23.719Z,100.00
2022-09-12T22:07:25.330Z,100.00
2022-09-12T22:09:26.917Z,100.00
2022-09-12T22:11:28.371Z,100.00
2022-09-12T22:13:31.427Z,100.00
2022-09-12T22:15:41.223Z,100.00
2022-09-12T22:17:43.174Z,100.00
2022-09-12T22:19:44.645Z,100.00
2022-09-12T22:21:46.268Z,100.00
2022-09-12T22:23:47.860Z,100.00
2022-09-12T22:25:49.562Z,100.00
2022-09-12T22:27:58.342Z,100.00
2022-09-12T22:30:01.211Z,100.00
2022-09-12T22:32:03.473Z,100.00
2022-09-12T22:34:05.416Z,100.00
2022-09-12T22:36:08.378Z,100.00
2022-09-12T22:38:09.923Z,100.00
2022-09-12T22:40:11.593Z,100.00
2022-09-12T22:42:13.964Z,100.00
2022-09-12T22:44:15.532Z,100.00
2022-09-12T22:46:18.442Z,100.00
2022-09-12T22:48:20.000Z,100.00
2022-09-12T22:50:21.605Z,100.00
2022-09-12T22:52:23.169Z,100.00
2022-09-12T22:54:24.689Z,100.00
2022-09-12T22:56:26.823Z,100.00
2022-09-12T22:58:28.295Z,100.00
2022-09-12T23:00:29.915Z,100.00
2022-09-12T23:02:32.830Z,100.00
2022-09-12T23:04:34.427Z,100.00
2022-09-12T23:06:35.884Z,100.00
2022-09-12T23:08:38.518Z,100.00
2022-09-12T23:10:40.183Z,100.00
2022-09-12T23:12:41.619Z,100.00
2022-09-12T23:14:43.267Z,100.00
2022-09-12T23:16:44.953Z,100.00
2022-09-12T23:18:48.288Z,100.00
2022-09-12T23:20:56.722Z,100.00
2022-09-12T23:22:58.162Z,100.00
2022-09-12T23:24:59.576Z,100.00
2022-09-12T23:27:01.089Z,100.00
2022-09-12T23:29:03.548Z,100.00
2022-09-12T23:31:05.831Z,100.00
2022-09-12T23:33:07.350Z,100.00
2022-09-12T23:35:10.176Z,100.00
2022-09-12T23:37:11.602Z,100.00
2022-09-12T23:39:13.211Z,100.00
2022-09-12T23:41:15.570Z,100.00
2022-09-12T23:43:17.066Z,100.00
2022-09-12T23:45:18.557Z,100.00
2022-09-12T23:47:20.013Z,100.00
2022-09-12T23:49:21.461Z,100.00
2022-09-12T23:51:24.286Z,100.00
2022-09-12T23:53:26.157Z,100.00
2022-09-12T23:55:27.614Z,100.00
2022-09-12T23:57:29.115Z,100.00
2022-09-12T23:59:30.590Z,100.00
